Terminal Aerodrome Forecast
Issued by NWS Charleston, WV

Current Version | Previous Version | Graphics & Text | Print | Product List | Glossary On
Versions: 1 2 3 4 5 6 7 8 9 10 11 12 13 14 15 16 17 18 19 20 21 22
996
FTUS41 KRLX 190538
TAFPKB
TAF
KPKB 190538Z 1906/2006 00000KT P6SM OVC010
     FM191500 15005KT P6SM BKN020
     FM191900 10005KT P6SM SCT150=

USA.gov is the U.S. government's official web portal to all federal, state and local government web resources and services.